Time;durP1;ratioP1;P1;durP2;ratioP2;P2;SDS_P1;SDS_P2;PMS_P1;PMS_P2;Temp;Humidity;BMP_temperature;BMP_pressure;BME280_temperature;BME280_humidity;BME280_pressure;Samples;Min_cycle;Max_cycle;Signal;HPM_P1;HPM_P2
2021/03/26 00:00:12;;;;;;;24.50;17.60;;;;;;;;;;5011085;28;20437;-53
2021/03/26 00:02:38;;;;;;;26.60;16.40;;;;;;;;;;5010990;28;20422;-53
2021/03/26 00:05:06;;;;;;;28.70;18.17;;;;;;;;;;5011071;28;20404;-53
2021/03/26 00:07:32;;;;;;;27.23;17.40;;;;;;;;;;5010688;28;20400;-53
2021/03/26 00:09:59;;;;;;;27.87;18.60;;;;;;;;;;5011009;28;20477;-53
2021/03/26 00:12:25;;;;;;;29.77;18.30;;;;;;;;;;5011154;28;20427;-53
2021/03/26 00:14:51;;;;;;;26.10;17.87;;;;;;;;;;5010247;28;20437;-53
2021/03/26 00:17:18;;;;;;;25.47;18.33;;;;;;;;;;5010749;28;20484;-52
2021/03/26 00:19:44;;;;;;;31.90;18.63;;;;;;;;;;5010859;28;20474;-53
2021/03/26 00:22:10;;;;;;;30.40;19.57;;;;;;;;;;5010814;28;20465;-53
2021/03/26 00:24:36;;;;;;;27.87;19.40;;;;;;;;;;5011118;28;20406;-53
2021/03/26 00:27:02;;;;;;;28.23;18.83;;;;;;;;;;5011083;28;20399;-53
2021/03/26 00:29:28;;;;;;;26.67;18.63;;;;;;;;;;5011055;28;20425;-53
2021/03/26 00:34:57;;;;;;;30.87;19.77;;;;;;;;;;5010096;28;20799;-53
2021/03/26 00:37:23;;;;;;;30.93;18.60;;;;;;;;;;5010376;28;20449;-53
2021/03/26 00:39:49;;;;;;;32.07;22.13;;;;;;;;;;5011399;28;20445;-52
2021/03/26 00:42:15;;;;;;;34.87;19.73;;;;;;;;;;5010581;28;20946;-53
2021/03/26 00:44:42;;;;;;;26.50;18.57;;;;;;;;;;5010007;28;20873;-53
2021/03/26 00:47:08;;;;;;;33.63;19.90;;;;;;;;;;5010772;28;20466;-53
2021/03/26 00:49:34;;;;;;;32.53;19.63;;;;;;;;;;5014185;28;20444;-53
2021/03/26 00:52:00;;;;;;;33.83;19.37;;;;;;;;;;5014404;28;20434;-52
2021/03/26 00:54:26;;;;;;;28.67;19.37;;;;;;;;;;5014386;28;20410;-53
2021/03/26 00:56:52;;;;;;;30.87;19.57;;;;;;;;;;5014406;28;20454;-53
2021/03/26 00:59:17;;;;;;;36.37;21.23;;;;;;;;;;5014064;28;20409;-53
2021/03/26 01:01:43;;;;;;;31.77;21.37;;;;;;;;;;5014291;28;20796;-53
2021/03/26 01:04:09;;;;;;;32.70;19.87;;;;;;;;;;5014185;28;20500;-53
2021/03/26 01:06:35;;;;;;;33.07;20.40;;;;;;;;;;5014131;28;20407;-53
2021/03/26 01:09:01;;;;;;;29.17;20.20;;;;;;;;;;5013873;28;20411;-53
2021/03/26 01:11:29;;;;;;;32.87;21.80;;;;;;;;;;5013151;28;20453;-53
2021/03/26 01:13:56;;;;;;;33.73;22.80;;;;;;;;;;5013909;28;20771;-53
2021/03/26 01:16:22;;;;;;;34.73;21.40;;;;;;;;;;5014054;28;20415;-53
2021/03/26 01:18:48;;;;;;;34.60;20.23;;;;;;;;;;5013637;28;20474;-52
2021/03/26 01:21:16;;;;;;;31.20;20.50;;;;;;;;;;5013715;28;20451;-53
2021/03/26 01:23:43;;;;;;;38.23;21.40;;;;;;;;;;5013920;28;20395;-53
2021/03/26 01:26:09;;;;;;;37.50;21.47;;;;;;;;;;5013775;28;20449;-53
2021/03/26 01:28:35;;;;;;;32.60;20.90;;;;;;;;;;5013537;28;20814;-53
2021/03/26 01:31:01;;;;;;;32.10;21.13;;;;;;;;;;5013572;28;20768;-53
2021/03/26 01:33:27;;;;;;;41.20;22.10;;;;;;;;;;5013650;28;20426;-53
2021/03/26 01:35:53;;;;;;;38.83;23.20;;;;;;;;;;5013488;28;20402;-53
2021/03/26 01:38:19;;;;;;;36.87;21.90;;;;;;;;;;5012412;28;20529;-53
2021/03/26 01:40:47;;;;;;;36.27;22.50;;;;;;;;;;5013315;28;20403;-53
2021/03/26 01:43:16;;;;;;;33.57;22.57;;;;;;;;;;5013588;28;20486;-53
2021/03/26 01:45:42;;;;;;;44.13;22.17;;;;;;;;;;5013409;28;20412;-53
2021/03/26 01:48:09;;;;;;;35.50;21.90;;;;;;;;;;5013245;28;20410;-53
2021/03/26 01:50:36;;;;;;;36.37;22.47;;;;;;;;;;5013290;28;20410;-53
2021/03/26 01:53:02;;;;;;;39.87;21.80;;;;;;;;;;5013318;28;20418;-53
2021/03/26 01:55:28;;;;;;;34.93;21.97;;;;;;;;;;5013332;28;20778;-53
2021/03/26 01:57:54;;;;;;;32.67;22.30;;;;;;;;;;5012676;28;20545;-53
2021/03/26 02:00:40;;;;;;;35.87;23.07;;;;;;;;;;5012261;28;20552;-53
2021/03/26 02:03:26;;;;;;;41.30;25.23;;;;;;;;;;5012618;28;20405;-53
2021/03/26 02:05:54;;;;;;;37.70;23.30;;;;;;;;;;5011409;28;20533;-53
2021/03/26 02:08:23;;;;;;;33.63;22.00;;;;;;;;;;5013074;28;20421;-53
2021/03/26 02:10:48;;;;;;;39.87;24.43;;;;;;;;;;5013363;28;20426;-53
2021/03/26 02:13:28;;;;;;;42.07;23.60;;;;;;;;;;5013046;28;21213;-53
2021/03/26 02:15:54;;;;;;;53.10;26.50;;;;;;;;;;5013040;28;20894;-53
2021/03/26 02:18:31;;;;;;;43.50;23.53;;;;;;;;;;5012625;28;20463;-53
2021/03/26 02:20:58;;;;;;;39.40;24.40;;;;;;;;;;5012884;28;20430;-54
2021/03/26 02:23:26;;;;;;;43.80;24.07;;;;;;;;;;5012782;28;20403;-53
2021/03/26 02:25:53;;;;;;;48.43;25.27;;;;;;;;;;5012734;28;20411;-53
2021/03/26 02:28:20;;;;;;;43.23;25.37;;;;;;;;;;5012420;28;20406;-53
2021/03/26 02:30:48;;;;;;;35.57;22.50;;;;;;;;;;5012562;28;20425;-53
2021/03/26 02:33:14;;;;;;;42.57;23.70;;;;;;;;;;5010806;28;20437;-53
2021/03/26 02:35:48;;;;;;;41.57;25.70;;;;;;;;;;5012563;28;20408;-53
2021/03/26 02:38:22;;;;;;;40.53;24.60;;;;;;;;;;5012050;28;20493;-53
2021/03/26 02:40:51;;;;;;;45.70;24.43;;;;;;;;;;5011553;28;20460;-53
2021/03/26 02:43:23;;;;;;;40.70;24.40;;;;;;;;;;5012518;28;20411;-53
2021/03/26 02:45:53;;;;;;;47.20;25.90;;;;;;;;;;5012397;28;20399;-53
2021/03/26 02:48:27;;;;;;;41.70;26.27;;;;;;;;;;5011925;28;20776;-53
2021/03/26 02:51:01;;;;;;;36.53;24.20;;;;;;;;;;5012165;28;20467;-53
2021/03/26 02:53:42;;;;;;;45.67;26.20;;;;;;;;;;5012167;28;20411;-53
2021/03/26 02:56:18;;;;;;;50.00;26.97;;;;;;;;;;5012199;28;20408;-53
2021/03/26 02:58:52;;;;;;;43.00;24.93;;;;;;;;;;5011482;28;20465;-53
2021/03/26 03:01:36;;;;;;;43.13;25.07;;;;;;;;;;5011985;28;20460;-52
2021/03/26 03:04:08;;;;;;;44.90;25.33;;;;;;;;;;5012036;28;20736;-53
2021/03/26 03:06:52;;;;;;;44.13;25.50;;;;;;;;;;5011928;28;20401;-53
2021/03/26 03:09:19;;;;;;;46.77;26.53;;;;;;;;;;5011537;28;20776;-53
2021/03/26 03:11:48;;;;;;;43.40;23.67;;;;;;;;;;5011443;28;20900;-53
2021/03/26 03:14:18;;;;;;;37.53;23.90;;;;;;;;;;5011742;28;20398;-53
2021/03/26 03:16:44;;;;;;;41.90;25.20;;;;;;;;;;5011835;28;20538;-53
2021/03/26 03:19:12;;;;;;;44.60;24.40;;;;;;;;;;5011444;28;20910;-53
2021/03/26 03:21:48;;;;;;;39.80;24.17;;;;;;;;;;5011539;28;20421;-53
2021/03/26 03:24:17;;;;;;;37.67;23.93;;;;;;;;;;5010631;28;20791;-53
2021/03/26 03:26:53;;;;;;;38.97;24.90;;;;;;;;;;5011781;28;20795;-53
2021/03/26 03:29:29;;;;;;;42.27;25.03;;;;;;;;;;5011422;28;20405;-53
2021/03/26 03:32:08;;;;;;;38.83;25.10;;;;;;;;;;5011423;28;20445;-53
2021/03/26 03:34:39;;;;;;;42.37;26.47;;;;;;;;;;5011508;28;20416;-53
2021/03/26 03:37:12;;;;;;;39.97;24.70;;;;;;;;;;5011461;28;20570;-53
2021/03/26 03:39:42;;;;;;;38.30;24.40;;;;;;;;;;5011457;28;20405;-53
2021/03/26 03:42:20;;;;;;;43.10;24.80;;;;;;;;;;5011249;28;20446;-53
2021/03/26 03:44:46;;;;;;;41.30;26.20;;;;;;;;;;5011425;28;20403;-53
2021/03/26 03:47:17;;;;;;;36.37;23.90;;;;;;;;;;5011233;28;20413;-53
2021/03/26 03:49:49;;;;;;;46.03;26.30;;;;;;;;;;5011143;28;20420;-53
2021/03/26 03:52:23;;;;;;;44.37;24.97;;;;;;;;;;5010167;28;20992;-53
2021/03/26 03:54:52;;;;;;;41.53;25.60;;;;;;;;;;5011287;28;20756;-53
2021/03/26 03:57:22;;;;;;;42.63;26.93;;;;;;;;;;5010966;28;20511;-53
2021/03/26 04:00:05;;;;;;;44.10;25.97;;;;;;;;;;5011390;28;20410;-52
2021/03/26 04:02:31;;;;;;;45.80;25.77;;;;;;;;;;5011140;28;20457;-52
2021/03/26 04:05:03;;;;;;;37.90;24.70;;;;;;;;;;5011217;28;20437;-53
2021/03/26 04:07:33;;;;;;;48.23;25.90;;;;;;;;;;5010914;28;20449;-53
2021/03/26 04:10:03;;;;;;;42.20;26.17;;;;;;;;;;5011231;28;20499;-53
2021/03/26 04:12:34;;;;;;;40.50;26.00;;;;;;;;;;5011387;28;20431;-53
2021/03/26 04:15:15;;;;;;;45.53;25.77;;;;;;;;;;5011200;28;20450;-53
2021/03/26 04:17:52;;;;;;;41.47;25.50;;;;;;;;;;5009828;28;20957;-53
2021/03/26 04:20:35;;;;;;;48.67;26.03;;;;;;;;;;5010897;28;20430;-53
2021/03/26 04:23:33;;;;;;;41.60;25.60;;;;;;;;;;5013474;28;20415;-53
2021/03/26 04:26:18;;;;;;;41.93;26.53;;;;;;;;;;5003139;28;20477;-53
2021/03/26 04:28:47;;;;;;;41.10;26.27;;;;;;;;;;5014575;28;20411;-53
2021/03/26 04:31:16;;;;;;;45.53;26.70;;;;;;;;;;5014720;28;20435;-53
2021/03/26 04:33:42;;;;;;;49.03;26.97;;;;;;;;;;5014783;28;20476;-53
2021/03/26 04:36:09;;;;;;;47.30;27.80;;;;;;;;;;5014808;28;20413;-53
2021/03/26 04:38:41;;;;;;;42.53;25.17;;;;;;;;;;5014338;28;20532;-53
2021/03/26 04:41:18;;;;;;;47.27;27.37;;;;;;;;;;5014424;28;20444;-52
2021/03/26 04:43:55;;;;;;;48.00;27.53;;;;;;;;;;5014737;28;20840;-53
2021/03/26 04:46:26;;;;;;;46.77;28.43;;;;;;;;;;5013800;28;20478;-53
2021/03/26 04:49:03;;;;;;;46.90;28.67;;;;;;;;;;5014199;28;20456;-53
2021/03/26 04:51:39;;;;;;;50.13;27.80;;;;;;;;;;5014341;28;20431;-53
2021/03/26 04:54:18;;;;;;;45.37;28.30;;;;;;;;;;5014326;28;20887;-53
2021/03/26 04:56:46;;;;;;;46.53;27.20;;;;;;;;;;5014247;28;20831;-53
2021/03/26 04:59:13;;;;;;;50.07;27.40;;;;;;;;;;5013975;28;20411;-53
2021/03/26 05:01:42;;;;;;;50.67;29.00;;;;;;;;;;5014230;28;20422;-53
2021/03/26 05:04:14;;;;;;;38.77;26.70;;;;;;;;;;5014111;28;20392;-53
2021/03/26 05:06:42;;;;;;;45.60;29.37;;;;;;;;;;5014212;28;20397;-53
2021/03/26 05:09:10;;;;;;;47.93;27.87;;;;;;;;;;5013782;28;20406;-53
2021/03/26 05:11:45;;;;;;;49.10;27.40;;;;;;;;;;5012997;28;20546;-53
2021/03/26 05:14:14;;;;;;;52.93;27.97;;;;;;;;;;5013921;28;20443;-53
2021/03/26 05:16:54;;;;;;;45.80;27.67;;;;;;;;;;5013866;28;20397;-53
2021/03/26 05:19:26;;;;;;;48.10;28.07;;;;;;;;;;5013910;28;20763;-53
2021/03/26 05:22:18;;;;;;;52.03;28.00;;;;;;;;;;5013849;28;20485;-53
2021/03/26 05:25:00;;;;;;;50.43;28.57;;;;;;;;;;5013749;28;20768;-53
2021/03/26 05:27:26;;;;;;;42.77;27.10;;;;;;;;;;5013931;28;20763;-53
2021/03/26 05:29:52;;;;;;;43.50;27.50;;;;;;;;;;5013596;28;20404;-53
2021/03/26 05:32:20;;;;;;;53.13;28.37;;;;;;;;;;5013688;28;20478;-53
2021/03/26 05:34:57;;;;;;;45.45;29.60;;;;;;;;;;5013272;28;20897;-54
2021/03/26 05:37:31;;;;;;;50.47;29.90;;;;;;;;;;5013354;28;20201;-53
2021/03/26 05:40:20;;;;;;;49.67;29.30;;;;;;;;;;5012499;28;20427;-53
2021/03/26 05:43:05;;;;;;;46.70;30.00;;;;;;;;;;5010346;28;20459;-53
2021/03/26 05:45:43;;;;;;;40.57;25.70;;;;;;;;;;5013466;28;20464;-53
2021/03/26 05:48:20;;;;;;;44.67;25.77;;;;;;;;;;5013219;28;20477;-53
2021/03/26 05:50:51;;;;;;;42.30;27.53;;;;;;;;;;5013394;28;20435;-53
2021/03/26 05:53:25;;;;;;;42.73;26.10;;;;;;;;;;5013407;28;20397;-53
2021/03/26 05:55:55;;;;;;;40.30;26.50;;;;;;;;;;5013203;28;20419;-53
2021/03/26 05:58:53;;;;;;;48.37;29.27;;;;;;;;;;5012166;28;20537;-53
2021/03/26 06:01:25;;;;;;;45.87;25.97;;;;;;;;;;5001290;28;20444;-53
2021/03/26 06:04:04;;;;;;;38.45;24.63;;;;;;;;;;5012266;28;20400;-53
2021/03/26 06:06:35;;;;;;;40.60;24.60;;;;;;;;;;5009838;28;20169;-53
2021/03/26 06:09:01;;;;;;;42.80;26.13;;;;;;;;;;5012192;28;20439;-53
2021/03/26 06:11:27;;;;;;;44.57;25.20;;;;;;;;;;5010909;28;20430;-53
2021/03/26 06:13:53;;;;;;;44.43;26.33;;;;;;;;;;5012431;28;20401;-53
2021/03/26 06:16:36;;;;;;;36.80;25.23;;;;;;;;;;5012756;28;20469;-52
2021/03/26 06:19:28;;;;;;;39.57;24.63;;;;;;;;;;5012535;28;20515;-53
2021/03/26 06:22:13;;;;;;;40.60;25.10;;;;;;;;;;5012664;28;20791;-53
2021/03/26 06:24:57;;;;;;;46.27;24.70;;;;;;;;;;5012750;28;20397;-53
2021/03/26 06:27:33;;;;;;;42.67;24.23;;;;;;;;;;5012306;28;20473;-52
2021/03/26 06:30:02;;;;;;;44.47;23.80;;;;;;;;;;5012705;28;20428;-53
2021/03/26 06:32:47;;;;;;;38.73;24.60;;;;;;;;;;5011366;28;20450;-53
2021/03/26 06:35:19;;;;;;;42.17;25.57;;;;;;;;;;5012092;28;20453;-52
2021/03/26 06:38:02;;;;;;;44.00;26.30;;;;;;;;;;5012179;28;20524;-53
2021/03/26 06:40:43;;;;;;;34.90;23.27;;;;;;;;;;5018183;28;20406;-52
2021/03/26 06:43:27;;;;;;;40.50;24.93;;;;;;;;;;5019024;28;20441;-53
2021/03/26 06:46:15;;;;;;;40.83;23.30;;;;;;;;;;5018495;28;20926;-53
2021/03/26 06:48:50;;;;;;;40.90;24.60;;;;;;;;;;5018798;28;20438;-53
2021/03/26 06:51:26;;;;;;;33.33;22.80;;;;;;;;;;5019134;28;20426;-52
2021/03/26 06:54:10;;;;;;;36.17;23.50;;;;;;;;;;5018164;28;20406;-52
2021/03/26 06:56:36;;;;;;;39.33;23.90;;;;;;;;;;5018321;28;20399;-53
2021/03/26 06:59:15;;;;;;;32.97;22.80;;;;;;;;;;5016459;28;20423;-52
2021/03/26 07:02:00;;;;;;;42.07;23.40;;;;;;;;;;5017813;28;20512;-53
2021/03/26 07:04:41;;;;;;;32.40;21.70;;;;;;;;;;5018555;28;20404;-53
2021/03/26 07:07:23;;;;;;;36.23;23.33;;;;;;;;;;5017880;28;20487;-53
2021/03/26 07:09:58;;;;;;;33.87;22.73;;;;;;;;;;5017820;28;20394;-52
2021/03/26 07:12:27;;;;;;;37.70;23.43;;;;;;;;;;5017935;28;20422;-54
2021/03/26 07:15:02;;;;;;;39.37;22.60;;;;;;;;;;5017472;28;20406;-54
2021/03/26 07:17:34;;;;;;;33.47;23.57;;;;;;;;;;5017750;28;20540;-54
2021/03/26 07:20:11;;;;;;;31.50;21.40;;;;;;;;;;5018205;28;20462;-52
2021/03/26 07:22:55;;;;;;;29.57;22.10;;;;;;;;;;5018513;28;20434;-53
2021/03/26 07:25:42;;;;;;;32.93;21.73;;;;;;;;;;5018602;28;20431;-55
2021/03/26 07:28:30;;;;;;;32.00;22.30;;;;;;;;;;4998266;28;20403;-53
2021/03/26 07:31:15;;;;;;;26.83;20.90;;;;;;;;;;4999387;28;20497;-52
2021/03/26 07:34:04;;;;;;;26.23;21.83;;;;;;;;;;4999272;28;20735;-53
2021/03/26 07:36:43;;;;;;;27.63;20.47;;;;;;;;;;4999680;28;20485;-52
2021/03/26 07:39:22;;;;;;;32.10;20.80;;;;;;;;;;4999949;28;20416;-52
2021/03/26 07:41:48;;;;;;;30.67;20.57;;;;;;;;;;4999746;28;20482;-53
2021/03/26 07:44:33;;;;;;;30.53;21.40;;;;;;;;;;4999938;28;20420;-55
2021/03/26 07:47:17;;;;;;;28.40;20.80;;;;;;;;;;4998825;28;20946;-52
2021/03/26 07:49:46;;;;;;;28.17;21.17;;;;;;;;;;4997831;28;20812;-52
2021/03/26 07:52:31;;;;;;;33.60;20.40;;;;;;;;;;4998190;28;20784;-55
2021/03/26 07:54:57;;;;;;;31.27;20.83;;;;;;;;;;5016258;28;20434;-53
2021/03/26 07:57:34;;;;;;;27.80;21.93;;;;;;;;;;5017049;28;20555;-54
2021/03/26 08:00:18;;;;;;;27.70;21.47;;;;;;;;;;5016180;28;20772;-53
2021/03/26 08:02:58;;;;;;;29.63;20.40;;;;;;;;;;5015432;28;20422;-53
2021/03/26 08:05:25;;;;;;;28.70;19.47;;;;;;;;;;5014389;28;20490;-53
2021/03/26 08:08:09;;;;;;;24.20;19.73;;;;;;;;;;5013158;28;20410;-54
2021/03/26 08:10:49;;;;;;;26.40;20.40;;;;;;;;;;5013775;28;20413;-53
2021/03/26 08:13:50;;;;;;;24.73;19.57;;;;;;;;;;5013453;28;20521;-53
2021/03/26 08:16:36;;;;;;;25.00;19.47;;;;;;;;;;4991083;28;20438;-54
2021/03/26 08:19:36;;;;;;;26.90;20.00;;;;;;;;;;5011423;28;20458;-53
2021/03/26 08:22:11;;;;;;;22.40;18.40;;;;;;;;;;5011608;28;20451;-54
2021/03/26 08:24:50;;;;;;;29.30;18.57;;;;;;;;;;5013301;28;20448;-53
2021/03/26 08:27:26;;;;;;;26.23;18.90;;;;;;;;;;5012621;28;20891;-54
2021/03/26 08:29:59;;;;;;;29.17;19.87;;;;;;;;;;5012902;28;20560;-54
2021/03/26 08:32:24;;;;;;;25.53;19.00;;;;;;;;;;5013359;28;20426;-53
2021/03/26 08:35:03;;;;;;;26.20;19.30;;;;;;;;;;5012531;28;20395;-54
2021/03/26 08:37:32;;;;;;;27.77;19.23;;;;;;;;;;5012564;28;20956;-54
2021/03/26 08:39:59;;;;;;;25.80;18.53;;;;;;;;;;5012110;28;20450;-55
2021/03/26 08:42:36;;;;;;;23.50;18.47;;;;;;;;;;5011732;28;20552;-54
2021/03/26 08:45:08;;;;;;;23.60;17.20;;;;;;;;;;5013745;28;20423;-53
2021/03/26 08:47:36;;;;;;;21.27;18.43;;;;;;;;;;5013246;28;20430;-53
2021/03/26 08:50:10;;;;;;;23.50;17.20;;;;;;;;;;5012158;28;20399;-54
2021/03/26 08:52:52;;;;;;;26.00;18.33;;;;;;;;;;5012414;28;20490;-53
2021/03/26 08:55:28;;;;;;;21.97;16.43;;;;;;;;;;5012638;28;21165;-55
2021/03/26 08:58:12;;;;;;;23.33;17.50;;;;;;;;;;5012281;28;20446;-53
2021/03/26 09:01:17;;;;;;;21.70;17.93;;;;;;;;;;5013572;28;20434;-54
2021/03/26 09:04:02;;;;;;;19.20;15.80;;;;;;;;;;4993127;28;20412;-54
2021/03/26 09:06:34;;;;;;;20.83;18.40;;;;;;;;;;4991778;28;21015;-55
2021/03/26 09:09:00;;;;;;;18.80;16.80;;;;;;;;;;5008032;28;20447;-53
2021/03/26 09:11:38;;;;;;;20.20;16.90;;;;;;;;;;5019047;28;20477;-54
2021/03/26 09:14:07;;;;;;;18.60;15.70;;;;;;;;;;5018567;28;20410;-55
2021/03/26 09:16:36;;;;;;;17.70;15.80;;;;;;;;;;5017989;28;20414;-54
2021/03/26 09:19:05;;;;;;;20.20;15.90;;;;;;;;;;5017039;28;20474;-54
2021/03/26 09:21:47;;;;;;;21.17;16.30;;;;;;;;;;5015457;28;20504;-53
2021/03/26 09:24:13;;;;;;;19.83;15.20;;;;;;;;;;5016175;28;20422;-54
2021/03/26 09:26:42;;;;;;;19.90;14.07;;;;;;;;;;5019173;28;21121;-54
2021/03/26 09:29:13;;;;;;;19.00;13.77;;;;;;;;;;5019674;28;20457;-54
2021/03/26 09:31:49;;;;;;;17.50;14.20;;;;;;;;;;5019941;28;20419;-54
2021/03/26 09:34:24;;;;;;;14.80;12.87;;;;;;;;;;5019703;28;20406;-55
2021/03/26 09:36:58;;;;;;;15.70;12.93;;;;;;;;;;5020098;28;20537;-55
2021/03/26 09:39:24;;;;;;;16.23;12.03;;;;;;;;;;5019608;28;20442;-56
2021/03/26 09:41:54;;;;;;;14.10;12.10;;;;;;;;;;5018935;28;20445;-54
2021/03/26 09:44:19;;;;;;;15.10;12.03;;;;;;;;;;5019558;28;20434;-54
2021/03/26 09:46:52;;;;;;;12.73;11.13;;;;;;;;;;5018331;28;20396;-54
2021/03/26 09:49:18;;;;;;;15.10;11.63;;;;;;;;;;5018604;28;20403;-54
2021/03/26 09:51:47;;;;;;;13.63;12.23;;;;;;;;;;5018882;28;20429;-54
2021/03/26 09:54:13;;;;;;;15.63;12.13;;;;;;;;;;5017696;28;20935;-54
2021/03/26 09:56:42;;;;;;;14.07;12.20;;;;;;;;;;5018701;28;20413;-55
2021/03/26 09:59:27;;;;;;;11.10;9.97;;;;;;;;;;5018628;28;20403;-54
2021/03/26 10:02:11;;;;;;;11.90;10.57;;;;;;;;;;5017366;28;20744;-54
2021/03/26 10:04:40;;;;;;;16.70;9.97;;;;;;;;;;5017378;28;20395;-54
2021/03/26 10:07:16;;;;;;;19.13;11.67;;;;;;;;;;5017410;28;20434;-52
2021/03/26 10:09:46;;;;;;;14.27;10.80;;;;;;;;;;5017756;28;20422;-55
2021/03/26 10:12:11;;;;;;;14.30;11.30;;;;;;;;;;5016749;28;20454;-54
2021/03/26 10:14:42;;;;;;;12.70;11.17;;;;;;;;;;5016259;28;20898;-54
2021/03/26 10:17:11;;;;;;;15.43;11.67;;;;;;;;;;5018092;28;20518;-54
2021/03/26 10:20:03;;;;;;;17.70;11.30;;;;;;;;;;5016845;28;20426;-53
2021/03/26 10:22:35;;;;;;;17.23;12.20;;;;;;;;;;5017346;28;20451;-54
2021/03/26 10:25:06;;;;;;;14.53;12.07;;;;;;;;;;5019055;28;20502;-53
2021/03/26 10:27:41;;;;;;;17.00;12.47;;;;;;;;;;5019266;28;20403;-55
2021/03/26 10:30:07;;;;;;;14.17;11.07;;;;;;;;;;5018264;28;20544;-53
2021/03/26 10:32:34;;;;;;;15.53;11.33;;;;;;;;;;5018616;28;20435;-54
2021/03/26 10:35:02;;;;;;;15.27;9.60;;;;;;;;;;5018729;28;20406;-54
2021/03/26 10:37:34;;;;;;;13.50;10.47;;;;;;;;;;5017442;28;20455;-54
2021/03/26 10:40:20;;;;;;;10.10;8.37;;;;;;;;;;5015354;28;20426;-54
2021/03/26 10:42:46;;;;;;;15.43;9.63;;;;;;;;;;5016563;28;20474;-54
2021/03/26 10:45:15;;;;;;;12.63;10.57;;;;;;;;;;5018301;28;20438;-54
2021/03/26 10:47:41;;;;;;;10.23;9.10;;;;;;;;;;5017798;28;20415;-56
2021/03/26 10:50:09;;;;;;;13.60;10.10;;;;;;;;;;5016474;28;20402;-55
2021/03/26 10:52:44;;;;;;;14.60;8.70;;;;;;;;;;5013794;28;20997;-55
2021/03/26 10:55:13;;;;;;;13.80;8.90;;;;;;;;;;5014760;28;20768;-55
2021/03/26 10:57:42;;;;;;;13.63;9.17;;;;;;;;;;5016999;28;21207;-55
2021/03/26 11:00:08;;;;;;;11.77;8.20;;;;;;;;;;5017221;28;20817;-55
2021/03/26 11:02:43;;;;;;;14.13;10.37;;;;;;;;;;5015945;28;20423;-55
2021/03/26 11:05:09;;;;;;;14.10;10.23;;;;;;;;;;5017897;28;20413;-55
2021/03/26 11:07:39;;;;;;;13.83;10.47;;;;;;;;;;5017710;28;20485;-55
2021/03/26 11:10:06;;;;;;;10.70;9.40;;;;;;;;;;5011523;28;20459;-53
2021/03/26 11:12:41;;;;;;;13.90;9.80;;;;;;;;;;5012873;28;20996;-54
2021/03/26 11:15:17;;;;;;;15.17;9.77;;;;;;;;;;5017479;28;20430;-54
2021/03/26 11:17:46;;;;;;;14.40;8.87;;;;;;;;;;5016396;28;20450;-55
2021/03/26 11:20:12;;;;;;;13.33;10.43;;;;;;;;;;5001436;28;21163;-54
2021/03/26 11:22:50;;;;;;;15.00;11.13;;;;;;;;;;4997693;28;20474;-54
2021/03/26 11:25:24;;;;;;;14.60;10.93;;;;;;;;;;5011936;28;20821;-55
2021/03/26 11:27:52;;;;;;;12.60;11.13;;;;;;;;;;5012131;28;20420;-55
2021/03/26 11:30:18;;;;;;;14.00;12.50;;;;;;;;;;5012959;28;20405;-55
2021/03/26 11:32:46;;;;;;;11.63;10.33;;;;;;;;;;5013704;28;21055;-55
2021/03/26 11:35:13;;;;;;;14.27;11.43;;;;;;;;;;5014560;28;20403;-53
2021/03/26 11:37:48;;;;;;;17.47;11.60;;;;;;;;;;5015916;28;20455;-56
2021/03/26 11:40:24;;;;;;;13.07;11.70;;;;;;;;;;5016362;28;20399;-56
2021/03/26 11:43:09;;;;;;;13.60;11.57;;;;;;;;;;5016478;28;20481;-54
2021/03/26 11:45:53;;;;;;;19.37;11.80;;;;;;;;;;5016613;28;20973;-54
2021/03/26 11:48:22;;;;;;;14.00;12.30;;;;;;;;;;5013348;28;20490;-54
2021/03/26 11:50:51;;;;;;;15.30;10.37;;;;;;;;;;5015034;28;21116;-55
2021/03/26 11:53:20;;;;;;;11.70;10.50;;;;;;;;;;5015730;28;20458;-55
2021/03/26 11:56:03;;;;;;;11.00;9.80;;;;;;;;;;5017039;28;20880;-53
2021/03/26 11:58:35;;;;;;;12.47;9.77;;;;;;;;;;5016437;28;20458;-54
2021/03/26 12:01:04;;;;;;;15.37;8.83;;;;;;;;;;5015476;28;20423;-54
2021/03/26 12:03:30;;;;;;;15.00;10.87;;;;;;;;;;5016577;28;20415;-55
2021/03/26 12:06:01;;;;;;;12.00;9.53;;;;;;;;;;5015759;28;20493;-55
2021/03/26 12:08:33;;;;;;;15.53;10.47;;;;;;;;;;5014924;28;20417;-52
2021/03/26 12:11:17;;;;;;;13.07;10.30;;;;;;;;;;5012375;28;20469;-52
2021/03/26 12:13:50;;;;;;;11.33;9.43;;;;;;;;;;5009083;28;20426;-53
2021/03/26 12:16:19;;;;;;;14.87;9.73;;;;;;;;;;5013720;28;20426;-56
2021/03/26 12:18:51;;;;;;;12.53;8.80;;;;;;;;;;5012536;28;20462;-56
2021/03/26 12:21:23;;;;;;;13.03;8.50;;;;;;;;;;5016361;28;20423;-54
2021/03/26 12:23:59;;;;;;;13.40;8.40;;;;;;;;;;5011630;28;20402;-55
2021/03/26 12:26:28;;;;;;;9.40;7.90;;;;;;;;;;5011019;28;20403;-51
2021/03/26 12:28:57;;;;;;;11.47;7.50;;;;;;;;;;5010489;28;20421;-53
2021/03/26 12:31:29;;;;;;;11.57;7.43;;;;;;;;;;5010253;28;20478;-52
2021/03/26 12:34:01;;;;;;;7.90;6.70;;;;;;;;;;5010775;28;20462;-51
2021/03/26 12:36:43;;;;;;;7.67;6.87;;;;;;;;;;5010672;28;20406;-51
2021/03/26 12:39:29;;;;;;;5.90;5.33;;;;;;;;;;5010416;28;20919;-51
2021/03/26 12:42:02;;;;;;;8.77;6.80;;;;;;;;;;4999539;28;20465;-51
2021/03/26 12:44:37;;;;;;;7.17;5.70;;;;;;;;;;5012827;28;20415;-55
2021/03/26 12:47:21;;;;;;;8.30;6.87;;;;;;;;;;5012620;28;20905;-54
2021/03/26 12:49:55;;;;;;;8.83;6.60;;;;;;;;;;5007912;28;20410;-51
2021/03/26 12:52:28;;;;;;;10.23;6.30;;;;;;;;;;4991667;28;20476;-53
2021/03/26 12:55:03;;;;;;;7.77;6.63;;;;;;;;;;5009896;28;20489;-51
2021/03/26 12:57:33;;;;;;;7.80;6.60;;;;;;;;;;4993249;28;20499;-51
2021/03/26 13:00:10;;;;;;;7.23;6.50;;;;;;;;;;4993476;28;20408;-54
2021/03/26 13:02:41;;;;;;;8.73;6.60;;;;;;;;;;4993349;28;20423;-55
2021/03/26 13:05:21;;;;;;;12.50;6.33;;;;;;;;;;4993415;28;20416;-51
2021/03/26 13:07:53;;;;;;;7.67;5.90;;;;;;;;;;4993577;28;20403;-54
2021/03/26 13:10:29;;;;;;;9.43;6.20;;;;;;;;;;4993365;28;20396;-55
2021/03/26 13:13:12;;;;;;;7.03;5.77;;;;;;;;;;5010451;28;20439;-52
2021/03/26 13:15:39;;;;;;;6.43;5.93;;;;;;;;;;5000733;28;20998;-52
2021/03/26 13:18:10;;;;;;;7.50;5.57;;;;;;;;;;4994483;28;20466;-53
2021/03/26 13:20:54;;;;;;;7.70;5.90;;;;;;;;;;5010206;28;20427;-55
2021/03/26 13:23:22;;;;;;;11.00;5.53;;;;;;;;;;5010644;28;20499;-55
2021/03/26 13:25:57;;;;;;;7.40;5.43;;;;;;;;;;5010710;28;20410;-55
2021/03/26 13:28:31;;;;;;;6.70;6.10;;;;;;;;;;5010494;28;20445;-51
2021/03/26 13:30:59;;;;;;;6.50;5.73;;;;;;;;;;5011073;28;20430;-54
2021/03/26 13:33:37;;;;;;;7.17;5.20;;;;;;;;;;5012479;28;20887;-53
2021/03/26 13:36:06;;;;;;;5.53;5.03;;;;;;;;;;5012365;28;20413;-54
2021/03/26 13:38:36;;;;;;;9.07;5.33;;;;;;;;;;5012411;28;20473;-54
2021/03/26 13:41:16;;;;;;;6.17;5.40;;;;;;;;;;4992327;28;580072;-51
2021/03/26 13:43:43;;;;;;;6.70;5.10;;;;;;;;;;5013563;28;20769;-50
2021/03/26 13:46:29;;;;;;;5.53;5.03;;;;;;;;;;5013442;28;20408;-55
2021/03/26 13:48:59;;;;;;;5.10;4.60;;;;;;;;;;5011181;28;20438;-54
2021/03/26 13:51:25;;;;;;;8.27;5.17;;;;;;;;;;5013825;28;20439;-53
2021/03/26 13:53:57;;;;;;;5.70;4.60;;;;;;;;;;5016007;28;20411;-53
2021/03/26 13:56:30;;;;;;;6.67;4.90;;;;;;;;;;5014661;28;20553;-55
2021/03/26 13:59:01;;;;;;;5.20;4.50;;;;;;;;;;5015466;28;20458;-53
2021/03/26 14:01:28;;;;;;;7.27;4.40;;;;;;;;;;5015491;28;21252;-54
2021/03/26 14:04:16;;;;;;;7.00;4.90;;;;;;;;;;5016295;28;20457;-54
2021/03/26 14:06:47;;;;;;;4.53;4.07;;;;;;;;;;5016521;28;20403;-53
2021/03/26 14:09:13;;;;;;;5.97;5.00;;;;;;;;;;5019348;28;20399;-53
2021/03/26 14:11:43;;;;;;;5.57;5.00;;;;;;;;;;5020160;28;20774;-54
2021/03/26 14:14:09;;;;;;;5.30;4.70;;;;;;;;;;5017297;28;20426;-53
2021/03/26 14:16:39;;;;;;;5.80;4.20;;;;;;;;;;5014321;28;20869;-53
2021/03/26 14:19:25;;;;;;;6.37;5.30;;;;;;;;;;5013491;28;20561;-53
2021/03/26 14:22:13;;;;;;;6.50;5.00;;;;;;;;;;5005009;28;20500;-54
2021/03/26 14:24:44;;;;;;;5.83;5.23;;;;;;;;;;5012002;28;20427;-54
2021/03/26 14:27:19;;;;;;;7.43;4.40;;;;;;;;;;5015146;28;20411;-55
2021/03/26 14:29:51;;;;;;;7.20;4.83;;;;;;;;;;5014658;28;20501;-53
2021/03/26 14:32:21;;;;;;;6.13;4.53;;;;;;;;;;5014736;28;20431;-53
2021/03/26 14:34:53;;;;;;;4.87;4.37;;;;;;;;;;5016551;28;20886;-53
2021/03/26 14:37:22;;;;;;;5.33;4.57;;;;;;;;;;5017428;28;20455;-54
2021/03/26 14:39:49;;;;;;;5.60;5.10;;;;;;;;;;5018551;28;20441;-53
2021/03/26 14:42:21;;;;;;;5.47;4.53;;;;;;;;;;5018469;28;20438;-54
2021/03/26 14:44:48;;;;;;;5.50;4.93;;;;;;;;;;5017590;28;20427;-53
2021/03/26 14:47:14;;;;;;;7.37;5.63;;;;;;;;;;5018568;28;20443;-54
2021/03/26 14:49:43;;;;;;;6.67;5.47;;;;;;;;;;5019444;28;20428;-53
2021/03/26 14:52:17;;;;;;;7.07;5.27;;;;;;;;;;5018473;28;20431;-54
2021/03/26 14:54:45;;;;;;;5.17;4.03;;;;;;;;;;5019554;28;20382;-52
2021/03/26 14:57:25;;;;;;;5.37;4.67;;;;;;;;;;5018085;28;20505;-53